createdAt,value
2017-11-16T00:00:13.588Z,5.52
2017-11-16T00:02:40.264Z,5.53
2017-11-16T00:05:07.706Z,5.47
2017-11-16T00:07:34.375Z,5.49
2017-11-16T00:10:01.818Z,5.65
2017-11-16T00:12:28.542Z,5.55
2017-11-16T00:14:55.202Z,5.51
2017-11-16T00:17:21.855Z,5.69
2017-11-16T00:19:48.622Z,5.51
2017-11-16T00:22:15.370Z,5.47
2017-11-16T00:24:42.098Z,5.53
2017-11-16T00:27:09.649Z,5.60
2017-11-16T00:29:36.308Z,5.56
2017-11-16T00:32:03.711Z,5.48
2017-11-16T00:34:30.430Z,5.57
2017-11-16T00:36:57.119Z,5.74
2017-11-16T00:39:23.881Z,5.86
2017-11-16T00:41:50.614Z,5.76
2017-11-16T00:44:17.362Z,5.53
2017-11-16T00:46:44.029Z,5.46
2017-11-16T00:49:10.795Z,5.60
2017-11-16T00:51:37.460Z,5.60
2017-11-16T00:54:04.155Z,5.65
2017-11-16T00:56:31.584Z,5.88
2017-11-16T00:58:58.239Z,5.84
2017-11-16T01:01:24.897Z,5.90
2017-11-16T01:03:51.598Z,5.99
2017-11-16T01:06:18.344Z,6.03
2017-11-16T01:08:45.081Z,5.79
2017-11-16T01:11:11.771Z,5.79
2017-11-16T01:13:38.407Z,5.95
2017-11-16T01:16:05.069Z,6.04
2017-11-16T01:18:32.537Z,6.14
2017-11-16T01:20:59.228Z,6.10
2017-11-16T01:23:25.902Z,6.00
2017-11-16T01:25:53.415Z,6.13
2017-11-16T01:28:20.066Z,6.23
2017-11-16T01:30:46.737Z,6.29
2017-11-16T01:33:13.460Z,6.33
2017-11-16T01:35:40.128Z,6.19
2017-11-16T01:38:06.885Z,6.28
2017-11-16T01:40:34.344Z,6.32
2017-11-16T01:43:01.878Z,6.01
2017-11-16T01:45:28.545Z,6.23
2017-11-16T01:47:55.292Z,6.26
2017-11-16T01:50:22.057Z,6.16
2017-11-16T01:52:48.770Z,6.11
2017-11-16T01:55:15.516Z,6.14
2017-11-16T01:57:42.253Z,6.27
2017-11-16T02:00:08.961Z,6.15
2017-11-16T02:02:39.721Z,6.15
2017-11-16T02:05:06.472Z,6.22
2017-11-16T02:07:33.166Z,5.88
2017-11-16T02:10:00.028Z,6.02
2017-11-16T02:12:26.699Z,6.04
2017-11-16T02:14:53.412Z,6.01
2017-11-16T02:17:20.288Z,6.02
2017-11-16T02:19:47.056Z,5.96
2017-11-16T02:22:13.854Z,5.69
2017-11-16T02:24:40.671Z,5.83
2017-11-16T02:27:07.476Z,5.87
2017-11-16T02:29:34.221Z,5.77
2017-11-16T02:32:01.232Z,5.74
2017-11-16T02:34:27.987Z,6.01
2017-11-16T02:36:54.779Z,6.19
2017-11-16T02:39:21.668Z,6.24
2017-11-16T02:41:48.399Z,6.07
2017-11-16T02:44:15.253Z,6.18
2017-11-16T02:46:42.105Z,6.20
2017-11-16T02:49:08.834Z,6.10
2017-11-16T02:51:35.678Z,6.00
2017-11-16T02:54:02.479Z,6.15
2017-11-16T02:56:29.240Z,6.18
2017-11-16T02:58:55.999Z,6.20
2017-11-16T03:01:22.769Z,6.13
2017-11-16T03:03:49.452Z,6.09
2017-11-16T03:06:16.226Z,5.98
2017-11-16T03:08:42.962Z,6.00
2017-11-16T03:11:09.742Z,6.04
2017-11-16T03:13:36.436Z,5.99
2017-11-16T03:16:03.228Z,6.01
2017-11-16T03:18:29.978Z,6.13
2017-11-16T03:20:56.727Z,5.88
2017-11-16T03:23:23.474Z,5.83
2017-11-16T03:25:51.123Z,5.92
2017-11-16T03:28:17.900Z,6.16
2017-11-16T03:30:44.621Z,6.27
2017-11-16T03:33:11.336Z,6.33
2017-11-16T03:35:38.776Z,6.30
2017-11-16T03:38:05.499Z,6.28
2017-11-16T03:40:32.967Z,6.22
2017-11-16T03:42:59.904Z,6.28
2017-11-16T03:45:26.674Z,6.19
2017-11-16T03:47:53.688Z,6.14
2017-11-16T03:50:20.403Z,6.23
2017-11-16T03:52:48.159Z,6.24
2017-11-16T03:55:16.182Z,6.31
2017-11-16T03:57:42.866Z,6.35
2017-11-16T04:00:09.586Z,6.42
2017-11-16T04:02:36.232Z,6.28
2017-11-16T04:05:02.917Z,6.42
2017-11-16T04:07:30.451Z,6.21
2017-11-16T04:09:57.140Z,6.21
2017-11-16T04:12:23.930Z,6.00
2017-11-16T04:14:50.635Z,6.18
2017-11-16T04:17:17.744Z,6.10
2017-11-16T04:19:44.440Z,6.16
2017-11-16T04:22:11.597Z,6.20
2017-11-16T04:24:38.307Z,6.17
2017-11-16T04:27:05.364Z,6.26
2017-11-16T04:29:32.110Z,6.28
2017-11-16T04:31:59.592Z,6.30
2017-11-16T04:34:26.365Z,6.35
2017-11-16T04:36:53.497Z,6.40
2017-11-16T04:39:20.151Z,6.36
2017-11-16T04:41:47.127Z,6.30
2017-11-16T04:44:13.853Z,6.24
2017-11-16T04:46:40.902Z,6.30
2017-11-16T04:49:07.610Z,6.40
2017-11-16T04:51:34.799Z,6.35
2017-11-16T04:54:01.475Z,6.45
2017-11-16T04:56:28.315Z,6.46
2017-11-16T04:58:55.022Z,6.13
2017-11-16T05:01:22.028Z,6.37
2017-11-16T05:03:49.442Z,6.44
2017-11-16T05:06:16.244Z,6.43
2017-11-16T05:08:42.984Z,6.39
2017-11-16T05:11:10.409Z,6.32
2017-11-16T05:13:37.201Z,6.32
2017-11-16T05:16:03.864Z,6.21
2017-11-16T05:18:31.175Z,5.95
2017-11-16T05:20:57.902Z,5.96
2017-11-16T05:23:25.079Z,6.07
2017-11-16T05:25:52.529Z,6.14
2017-11-16T05:28:19.652Z,6.11
2017-11-16T05:30:46.356Z,5.80
2017-11-16T05:33:13.692Z,5.88
2017-11-16T05:35:41.155Z,5.82
2017-11-16T05:38:08.652Z,6.09
2017-11-16T05:40:35.361Z,6.02
2017-11-16T05:43:02.391Z,6.07
2017-11-16T05:45:29.087Z,6.02
2017-11-16T05:47:55.768Z,6.20
2017-11-16T05:50:22.548Z,6.23
2017-11-16T05:52:50.021Z,6.25
2017-11-16T05:55:16.776Z,6.32
2017-11-16T05:57:43.735Z,6.27
2017-11-16T06:00:10.542Z,6.20
2017-11-16T06:02:39.164Z,6.19
2017-11-16T06:05:06.800Z,6.28
2017-11-16T06:07:35.443Z,6.20
2017-11-16T06:10:03.135Z,6.30
2017-11-16T06:12:29.851Z,6.40
2017-11-16T06:14:56.599Z,6.49
2017-11-16T06:17:23.350Z,6.44
2017-11-16T06:19:50.744Z,6.38
2017-11-16T06:22:18.210Z,6.50
2017-11-16T06:24:45.209Z,6.17
2017-11-16T06:27:11.946Z,6.25
2017-11-16T06:29:40.072Z,6.22
2017-11-16T06:32:06.750Z,6.31
2017-11-16T06:34:34.048Z,6.27
2017-11-16T06:37:00.738Z,6.40
2017-11-16T06:39:27.665Z,6.54
2017-11-16T06:41:55.180Z,6.54
2017-11-16T06:44:21.831Z,6.70
2017-11-16T06:46:48.760Z,6.76
2017-11-16T06:49:15.465Z,6.77
2017-11-16T06:51:43.119Z,6.95
2017-11-16T06:54:09.787Z,6.99
2017-11-16T06:56:37.205Z,7.09
2017-11-16T06:59:04.680Z,6.99
2017-11-16T07:01:31.986Z,6.92
2017-11-16T07:03:59.786Z,6.85
2017-11-16T07:06:26.756Z,6.91
2017-11-16T07:08:54.612Z,7.06
2017-11-16T07:11:21.640Z,7.07
2017-11-16T07:13:48.673Z,6.99
2017-11-16T07:16:15.887Z,7.11
2017-11-16T07:18:43.017Z,6.95
2017-11-16T07:21:09.902Z,7.11
2017-11-16T07:23:37.309Z,6.89
2017-11-16T07:26:04.051Z,6.28
2017-11-16T07:28:30.741Z,6.32
2017-11-16T07:30:57.408Z,6.23
2017-11-16T07:33:24.260Z,5.99
2017-11-16T07:35:50.915Z,6.00
2017-11-16T07:38:17.717Z,6.05
2017-11-16T07:40:54.135Z,6.18
2017-11-16T07:43:20.891Z,6.39
2017-11-16T07:45:47.919Z,6.16
2017-11-16T07:48:14.719Z,6.14
2017-11-16T07:50:41.462Z,6.17
2017-11-16T07:53:08.457Z,6.29
2017-11-16T07:55:35.135Z,6.47
2017-11-16T07:58:01.960Z,6.50
2017-11-16T08:00:28.637Z,6.51
2017-11-16T08:02:55.845Z,6.63
2017-11-16T08:05:22.592Z,6.52
2017-11-16T08:07:49.282Z,6.60
2017-11-16T08:10:15.976Z,6.49
2017-11-16T08:12:42.969Z,6.47
2017-11-16T08:15:10.883Z,6.68
2017-11-16T08:17:38.316Z,6.47
2017-11-16T08:20:05.762Z,6.54
2017-11-16T08:22:32.448Z,6.49
2017-11-16T08:24:59.170Z,6.80
2017-11-16T08:27:25.851Z,6.84
2017-11-16T08:29:52.564Z,6.75
2017-11-16T08:32:20.015Z,6.63
2017-11-16T08:34:47.202Z,6.62
2017-11-16T08:37:13.899Z,6.75
2017-11-16T08:39:40.696Z,6.74
2017-11-16T08:42:07.372Z,6.74
2017-11-16T08:44:34.619Z,6.80
2017-11-16T08:47:01.405Z,6.96
2017-11-16T08:49:28.300Z,6.88
2017-11-16T08:51:57.078Z,6.85
2017-11-16T08:54:24.215Z,7.13
2017-11-16T08:56:51.761Z,7.18
2017-11-16T08:59:19.107Z,7.34
2017-11-16T09:01:45.883Z,7.46
2017-11-16T09:04:13.771Z,7.45
2017-11-16T09:06:41.104Z,7.63
2017-11-16T09:09:08.716Z,7.74
2017-11-16T09:11:35.513Z,8.08
2017-11-16T09:14:03.052Z,8.33
2017-11-16T09:16:29.977Z,8.55
2017-11-16T09:18:57.264Z,8.44
2017-11-16T09:21:24.004Z,8.73
2017-11-16T09:23:50.868Z,8.89
2017-11-16T09:26:17.618Z,9.07
2017-11-16T09:28:45.148Z,8.86
2017-11-16T09:31:11.920Z,9.14
2017-11-16T09:33:38.649Z,9.23
2017-11-16T09:36:05.639Z,9.41
2017-11-16T09:38:32.398Z,9.41
2017-11-16T09:40:59.494Z,9.59
2017-11-16T09:43:26.223Z,9.58
2017-11-16T09:45:53.021Z,9.51
2017-11-16T09:48:20.649Z,9.74
2017-11-16T09:50:47.346Z,9.92
2017-11-16T09:53:14.111Z,9.94
2017-11-16T09:55:40.941Z,10.10
2017-11-16T09:58:07.647Z,9.92
2017-11-16T10:00:35.181Z,9.59
2017-11-16T10:03:01.875Z,9.57
2017-11-16T10:05:28.587Z,9.57
2017-11-16T10:07:55.355Z,9.63
2017-11-16T10:10:22.797Z,9.70
2017-11-16T10:12:49.495Z,9.82
2017-11-16T10:15:16.224Z,9.96
2017-11-16T10:17:42.907Z,10.04
2017-11-16T10:20:09.640Z,9.92
2017-11-16T10:22:36.393Z,9.30
2017-11-16T10:25:03.122Z,9.25
2017-11-16T10:27:29.971Z,9.35
2017-11-16T10:29:57.584Z,9.13
2017-11-16T10:32:25.125Z,9.55
2017-11-16T10:34:51.824Z,9.69
2017-11-16T10:37:18.630Z,9.54
2017-11-16T10:39:45.331Z,9.44
2017-11-16T10:42:12.096Z,9.56
2017-11-16T10:44:38.981Z,9.18
2017-11-16T10:47:06.478Z,9.42
2017-11-16T10:49:33.178Z,9.63
2017-11-16T10:52:00.710Z,9.69
2017-11-16T10:54:27.452Z,10.00
2017-11-16T10:56:54.130Z,10.13
2017-11-16T10:59:20.890Z,10.18
2017-11-16T11:01:48.107Z,10.31
2017-11-16T11:04:14.801Z,10.67
2017-11-16T11:06:41.533Z,10.57
2017-11-16T11:09:08.217Z,10.89
2017-11-16T11:11:34.902Z,10.60
2017-11-16T11:14:02.383Z,10.81
2017-11-16T11:16:30.755Z,11.06
2017-11-16T11:18:58.299Z,11.33
2017-11-16T11:21:25.090Z,11.17
2017-11-16T11:23:52.635Z,11.29
2017-11-16T11:26:19.322Z,11.17
2017-11-16T11:28:46.080Z,11.04
2017-11-16T11:31:12.773Z,10.82
2017-11-16T11:33:39.455Z,10.31
2017-11-16T11:36:06.159Z,10.13
2017-11-16T11:38:32.868Z,10.25
2017-11-16T11:40:59.588Z,10.12
2017-11-16T11:43:26.318Z,9.92
2017-11-16T11:45:53.723Z,10.04
2017-11-16T11:48:21.155Z,10.22
2017-11-16T11:50:47.848Z,10.21
2017-11-16T11:53:14.564Z,10.22
2017-11-16T11:55:41.247Z,10.12
2017-11-16T11:58:08.064Z,10.27
2017-11-16T12:00:36.272Z,10.52
2017-11-16T12:03:03.039Z,10.13
2017-11-16T12:05:29.836Z,9.89
2017-11-16T12:07:57.264Z,9.72
2017-11-16T12:10:23.989Z,9.57
2017-11-16T12:12:50.750Z,9.67
2017-11-16T12:15:17.481Z,9.67
2017-11-16T12:17:44.195Z,9.75
2017-11-16T12:20:10.923Z,9.78
2017-11-16T12:22:38.326Z,9.46
2017-11-16T12:25:05.970Z,9.28
2017-11-16T12:27:32.697Z,9.67
2017-11-16T12:29:59.479Z,9.93
2017-11-16T12:32:26.276Z,9.97
2017-11-16T12:34:53.843Z,9.76
2017-11-16T12:37:21.367Z,9.78
2017-11-16T12:39:48.101Z,9.72
2017-11-16T12:42:14.941Z,10.00
2017-11-16T12:44:41.732Z,10.17
2017-11-16T12:47:09.584Z,10.02
2017-11-16T12:49:36.387Z,10.06
2017-11-16T12:52:03.125Z,10.25
2017-11-16T12:54:29.871Z,9.93
2017-11-16T12:56:56.619Z,9.98
2017-11-16T12:59:23.352Z,10.01
2017-11-16T13:01:50.081Z,10.07
2017-11-16T13:04:17.570Z,10.11
2017-11-16T13:06:44.284Z,10.00
2017-11-16T13:09:12.636Z,9.66
2017-11-16T13:11:39.390Z,9.67
2017-11-16T13:14:06.137Z,9.56
2017-11-16T13:16:32.814Z,9.42
2017-11-16T13:18:59.569Z,9.38
2017-11-16T13:21:26.273Z,9.37
2017-11-16T13:23:52.951Z,9.29
2017-11-16T13:26:19.698Z,9.45
2017-11-16T13:28:46.403Z,9.48
2017-11-16T13:31:13.937Z,9.27
2017-11-16T13:33:40.641Z,8.93
2017-11-16T13:36:07.306Z,8.93
2017-11-16T13:38:33.974Z,9.00
2017-11-16T13:41:00.707Z,8.93
2017-11-16T13:43:27.372Z,8.81
2017-11-16T13:45:54.096Z,8.79
2017-11-16T13:48:20.885Z,8.92
2017-11-16T13:50:48.324Z,8.54
2017-11-16T13:53:15.015Z,8.66
2017-11-16T13:55:41.713Z,8.82
2017-11-16T13:58:08.372Z,8.76
2017-11-16T14:00:35.849Z,8.57
2017-11-16T14:03:02.609Z,8.59
2017-11-16T14:05:29.295Z,8.81
2017-11-16T14:07:56.335Z,9.05
2017-11-16T14:10:23.030Z,8.95
2017-11-16T14:12:49.744Z,8.82
2017-11-16T14:15:16.446Z,8.92
2017-11-16T14:17:43.191Z,8.98
2017-11-16T14:20:09.863Z,8.98
2017-11-16T14:22:36.546Z,8.69
2017-11-16T14:25:03.295Z,8.47
2017-11-16T14:27:29.964Z,8.68
2017-11-16T14:29:56.628Z,8.75
2017-11-16T14:32:23.377Z,8.77
2017-11-16T14:34:50.057Z,8.91
2017-11-16T14:37:17.479Z,9.04
2017-11-16T14:39:44.203Z,8.85
2017-11-16T14:42:10.919Z,8.80
2017-11-16T14:44:37.613Z,8.69
2017-11-16T14:47:04.350Z,8.62
2017-11-16T14:49:31.983Z,8.36
2017-11-16T14:51:59.324Z,8.26
2017-11-16T14:54:26.051Z,8.18
2017-11-16T14:56:53.473Z,8.30
2017-11-16T14:59:20.169Z,8.40
2017-11-16T15:01:46.883Z,8.29
2017-11-16T15:04:14.336Z,8.30
2017-11-16T15:06:42.011Z,8.24
2017-11-16T15:09:08.724Z,8.27
2017-11-16T15:11:36.439Z,8.31
2017-11-16T15:14:03.849Z,8.43
2017-11-16T15:16:30.560Z,8.49
2017-11-16T15:18:57.259Z,8.57
2017-11-16T15:21:23.933Z,8.45
2017-11-16T15:23:51.401Z,8.23
2017-11-16T15:26:18.138Z,8.16
2017-11-16T15:28:44.883Z,8.04
2017-11-16T15:31:13.348Z,8.09
2017-11-16T15:33:40.782Z,8.09
2017-11-16T15:36:07.560Z,8.16
2017-11-16T15:38:35.012Z,8.13
2017-11-16T15:41:02.413Z,8.14
2017-11-16T15:43:29.092Z,7.87
2017-11-16T15:45:56.053Z,7.74
2017-11-16T15:48:22.818Z,7.78
2017-11-16T15:50:50.375Z,7.64
2017-11-16T15:53:17.820Z,7.62
2017-11-16T15:55:44.483Z,7.56
2017-11-16T15:58:11.909Z,7.62
2017-11-16T16:00:38.596Z,7.69
2017-11-16T16:03:05.305Z,7.56
2017-11-16T16:05:31.976Z,7.86
2017-11-16T16:07:59.412Z,7.91
2017-11-16T16:10:26.108Z,7.68
2017-11-16T16:12:52.746Z,7.82
2017-11-16T16:15:19.487Z,8.04
2017-11-16T16:17:46.182Z,7.93
2017-11-16T16:20:12.846Z,7.76
2017-11-16T16:22:40.314Z,7.83
2017-11-16T16:25:07.738Z,7.83
2017-11-16T16:27:34.439Z,7.90
2017-11-16T16:30:01.131Z,7.83
2017-11-16T16:32:27.905Z,7.92
2017-11-16T16:34:55.324Z,7.99
2017-11-16T16:37:22.094Z,7.98
2017-11-16T16:39:48.790Z,7.99
2017-11-16T16:42:15.419Z,8.05
2017-11-16T16:44:42.157Z,8.05
2017-11-16T16:47:08.851Z,8.05
2017-11-16T16:49:35.572Z,8.15
2017-11-16T16:52:02.247Z,8.09
2017-11-16T16:54:28.959Z,8.21
2017-11-16T16:56:55.651Z,8.31
2017-11-16T16:59:23.109Z,8.18
2017-11-16T17:01:50.551Z,7.84
2017-11-16T17:04:17.260Z,7.88
2017-11-16T17:06:43.947Z,7.85
2017-11-16T17:09:10.602Z,7.74
2017-11-16T17:11:38.015Z,7.92
2017-11-16T17:14:04.804Z,7.94
2017-11-16T17:16:32.296Z,7.98
2017-11-16T17:18:58.982Z,7.91
2017-11-16T17:21:25.692Z,7.81
2017-11-16T17:23:52.413Z,7.86
2017-11-16T17:26:19.844Z,7.97
2017-11-16T17:28:46.612Z,7.95
2017-11-16T17:31:14.928Z,8.01
2017-11-16T17:33:41.618Z,7.96
2017-11-16T17:36:08.387Z,7.93
2017-11-16T17:38:35.087Z,7.95
2017-11-16T17:41:01.777Z,8.05
2017-11-16T17:43:29.240Z,7.92
2017-11-16T17:45:55.980Z,7.95
2017-11-16T17:48:22.703Z,8.10
2017-11-16T17:50:49.457Z,8.16
2017-11-16T17:53:16.888Z,8.22
2017-11-16T17:55:43.599Z,8.20
2017-11-16T17:58:10.335Z,8.01
2017-11-16T18:00:37.205Z,8.08
2017-11-16T18:03:03.889Z,8.04
2017-11-16T18:05:30.606Z,8.03
2017-11-16T18:07:57.254Z,8.00
2017-11-16T18:10:23.956Z,7.89
2017-11-16T18:12:50.745Z,7.71
2017-11-16T18:15:17.523Z,7.70
2017-11-16T18:17:44.943Z,7.50
2017-11-16T18:20:11.688Z,7.50
2017-11-16T18:22:38.626Z,7.54
2017-11-16T18:25:05.331Z,7.50
2017-11-16T18:27:32.083Z,7.41
2017-11-16T18:29:58.814Z,7.31
2017-11-16T18:32:25.528Z,7.26
2017-11-16T18:34:53.057Z,7.54
2017-11-16T18:37:19.718Z,7.47
2017-11-16T18:39:46.430Z,7.53
2017-11-16T18:42:13.906Z,7.62
2017-11-16T18:44:40.590Z,7.76
2017-11-16T18:47:07.363Z,7.90
2017-11-16T18:49:34.088Z,8.00
2017-11-16T18:52:01.533Z,7.92
2017-11-16T18:54:28.220Z,7.98
2017-11-16T18:56:54.981Z,7.99
2017-11-16T18:59:21.707Z,8.01
2017-11-16T19:01:48.449Z,7.88
2017-11-16T19:04:15.197Z,7.96
2017-11-16T19:06:41.892Z,7.98
2017-11-16T19:09:08.599Z,8.04
2017-11-16T19:11:35.299Z,7.85
2017-11-16T19:14:06.679Z,7.98
2017-11-16T19:16:33.400Z,7.58
2017-11-16T19:19:00.856Z,7.77
2017-11-16T19:21:28.236Z,7.74
2017-11-16T19:23:54.925Z,7.70
2017-11-16T19:26:21.735Z,7.70
2017-11-16T19:28:48.401Z,7.69
2017-11-16T19:31:15.113Z,7.47
2017-11-16T19:33:41.881Z,7.45
2017-11-16T19:36:08.581Z,7.42
2017-11-16T19:38:35.986Z,7.31
2017-11-16T19:41:02.734Z,7.19
2017-11-16T19:43:29.428Z,7.25
2017-11-16T19:45:56.845Z,7.38
2017-11-16T19:48:24.113Z,7.39
2017-11-16T19:50:50.829Z,7.27
2017-11-16T19:53:17.533Z,7.21
2017-11-16T19:55:45.008Z,7.28
2017-11-16T19:58:11.708Z,7.24
2017-11-16T20:00:38.556Z,7.17
2017-11-16T20:03:05.271Z,7.30
2017-11-16T20:05:31.981Z,7.22
2017-11-16T20:07:59.464Z,7.22
2017-11-16T20:10:26.268Z,7.34
2017-11-16T20:12:53.799Z,7.26
2017-11-16T20:15:20.503Z,7.35
2017-11-16T20:17:47.285Z,7.21
2017-11-16T20:20:14.037Z,7.33
2017-11-16T20:22:40.715Z,7.35
2017-11-16T20:25:08.190Z,7.35
2017-11-16T20:27:34.955Z,7.39
2017-11-16T20:30:01.684Z,7.56
2017-11-16T20:32:28.441Z,7.52
2017-11-16T20:34:55.151Z,7.55
2017-11-16T20:37:23.486Z,7.47
2017-11-16T20:53:22.245Z,7.46
2017-11-16T20:55:49.745Z,7.34
2017-11-16T20:58:16.851Z,7.47
2017-11-16T21:00:44.352Z,7.50
2017-11-16T21:03:11.342Z,7.50
2017-11-16T21:05:38.187Z,7.68
2017-11-16T21:08:06.772Z,7.49
2017-11-16T21:10:33.556Z,7.60
2017-11-16T21:13:00.243Z,7.41
2017-11-16T21:15:27.684Z,7.62
2017-11-16T21:17:54.427Z,7.66
2017-11-16T21:20:21.119Z,7.80
2017-11-16T21:22:47.849Z,7.76
2017-11-16T21:25:14.554Z,7.84
2017-11-16T21:27:41.261Z,7.90
2017-11-16T21:30:08.740Z,8.00
2017-11-16T21:32:36.219Z,7.99
2017-11-16T21:35:02.978Z,8.07
2017-11-16T21:37:30.105Z,7.97
2017-11-16T21:39:56.800Z,8.03
2017-11-16T21:42:23.486Z,7.97
2017-11-16T21:44:50.274Z,8.08
2017-11-16T21:47:16.995Z,8.08
2017-11-16T21:49:43.671Z,8.13
2017-11-16T21:52:10.416Z,8.15
2017-11-16T21:54:37.093Z,8.16
2017-11-16T21:57:04.574Z,8.09
2017-11-16T21:59:31.273Z,8.17
2017-11-16T22:01:57.964Z,8.18
2017-11-16T22:04:24.699Z,8.12
2017-11-16T22:06:51.453Z,7.94
2017-11-16T22:09:18.163Z,7.90
2017-11-16T22:11:45.568Z,7.60
2017-11-16T22:14:12.297Z,7.34
2017-11-16T22:16:38.971Z,7.26
2017-11-16T22:19:05.679Z,7.16
2017-11-16T22:21:32.396Z,7.04
2017-11-16T22:23:59.076Z,7.30
2017-11-16T22:26:25.809Z,7.28
2017-11-16T22:28:52.544Z,7.13
2017-11-16T22:31:19.979Z,7.06
2017-11-16T22:33:46.686Z,7.02
2017-11-16T22:36:13.453Z,7.19
2017-11-16T22:38:40.136Z,7.33
2017-11-16T22:41:07.064Z,7.20
2017-11-16T22:43:33.832Z,7.27
2017-11-16T22:46:01.370Z,7.36
2017-11-16T22:48:28.038Z,7.42
2017-11-16T22:50:55.495Z,7.41
2017-11-16T22:53:22.903Z,7.38
2017-11-16T22:55:49.583Z,7.38
2017-11-16T22:58:16.302Z,7.45
2017-11-16T23:00:43.585Z,7.27
2017-11-16T23:03:10.994Z,7.31
2017-11-16T23:05:37.701Z,7.39
2017-11-16T23:08:05.118Z,7.39
2017-11-16T23:10:31.795Z,7.31
2017-11-16T23:12:59.246Z,7.18
2017-11-16T23:15:26.667Z,7.17
2017-11-16T23:17:53.326Z,7.37
2017-11-16T23:20:20.385Z,7.28
2017-11-16T23:22:47.074Z,7.28
2017-11-16T23:25:14.896Z,7.42
2017-11-16T23:27:41.623Z,7.08
2017-11-16T23:30:08.354Z,7.18
2017-11-16T23:32:35.048Z,7.29
2017-11-16T23:35:02.513Z,7.38
2017-11-16T23:37:29.961Z,7.26
2017-11-16T23:39:56.693Z,7.13
2017-11-16T23:42:23.419Z,6.92
2017-11-16T23:44:50.090Z,6.94
2017-11-16T23:47:16.763Z,6.63
2017-11-16T23:49:44.206Z,6.71
2017-11-16T23:52:11.663Z,6.94
2017-11-16T23:54:38.325Z,6.91
2017-11-16T23:57:05.772Z,6.89
2017-11-16T23:59:33.207Z,6.88
